createdAt,value
2019-06-26T00:03:02.483Z,25.60
2019-06-26T00:07:14.461Z,25.60
2019-06-26T00:11:24.807Z,25.60
2019-06-26T00:15:35.148Z,25.50
2019-06-26T00:19:45.520Z,25.50
2019-06-26T00:23:56.069Z,25.40
2019-06-26T00:28:06.411Z,25.40
2019-06-26T00:32:16.719Z,25.30
2019-06-26T00:36:27.031Z,25.30
2019-06-26T00:40:37.439Z,25.20
2019-06-26T00:44:48.976Z,25.10
2019-06-26T00:48:59.318Z,25.10
2019-06-26T00:53:09.724Z,25.10
2019-06-26T00:57:20.064Z,25.00
2019-06-26T01:01:30.433Z,25.00
2019-06-26T01:05:41.539Z,25.00
2019-06-26T01:09:51.879Z,25.00
2019-06-26T01:14:02.177Z,25.00
2019-06-26T01:18:12.518Z,24.90
2019-06-26T01:22:22.872Z,24.80
2019-06-26T01:26:33.159Z,24.70
2019-06-26T01:30:43.521Z,24.60
2019-06-26T01:34:53.853Z,24.60
2019-06-26T01:39:06.067Z,24.40
2019-06-26T01:43:16.439Z,24.40
2019-06-26T01:47:27.034Z,24.30
2019-06-26T01:51:37.363Z,24.20
2019-06-26T01:55:47.750Z,24.10
2019-06-26T01:59:58.058Z,24.10
2019-06-26T02:04:08.843Z,24.00
2019-06-26T02:08:19.237Z,24.00
2019-06-26T02:12:29.600Z,23.90
2019-06-26T02:16:39.928Z,23.90
2019-06-26T02:20:50.257Z,23.80
2019-06-26T02:25:00.592Z,23.80
2019-06-26T02:29:10.972Z,23.70
2019-06-26T02:33:21.332Z,23.70
2019-06-26T02:37:31.781Z,23.60
2019-06-26T02:41:42.234Z,23.50
2019-06-26T02:45:52.634Z,23.40
2019-06-26T02:50:03.545Z,23.40
2019-06-26T02:54:13.969Z,23.40
2019-06-26T02:58:24.273Z,23.40
2019-06-26T03:02:34.599Z,23.40
2019-06-26T03:06:44.828Z,23.50
2019-06-26T03:10:55.132Z,23.50
2019-06-26T03:15:09.881Z,23.50
2019-06-26T03:19:20.508Z,23.50
2019-06-26T03:23:30.849Z,23.50
2019-06-26T03:27:41.425Z,23.50
2019-06-26T03:31:51.946Z,23.50
2019-06-26T03:36:02.322Z,23.60
2019-06-26T03:40:13.095Z,23.80
2019-06-26T03:44:23.436Z,23.90
2019-06-26T03:48:33.744Z,24.20
2019-06-26T03:52:44.064Z,24.70
2019-06-26T03:56:54.463Z,25.10
2019-06-26T04:01:05.590Z,25.20
2019-06-26T04:05:15.903Z,25.40
2019-06-26T04:09:26.128Z,25.90
2019-06-26T04:13:36.476Z,26.20
2019-06-26T04:17:46.883Z,26.20
2019-06-26T04:21:57.220Z,26.20
2019-06-26T04:26:07.587Z,26.30
2019-06-26T04:30:18.710Z,26.40
2019-06-26T04:34:29.051Z,26.40
2019-06-26T04:38:39.475Z,26.60
2019-06-26T04:42:49.690Z,26.70
2019-06-26T04:47:00.019Z,27.00
2019-06-26T04:51:10.361Z,27.10
2019-06-26T04:55:20.668Z,27.20
2019-06-26T04:59:31.007Z,27.40
2019-06-26T05:03:41.335Z,27.50
2019-06-26T05:07:53.716Z,27.80
2019-06-26T05:12:03.538Z,28.00
2019-06-26T05:16:16.598Z,28.30
2019-06-26T05:20:25.819Z,28.60
2019-06-26T05:24:36.069Z,28.70
2019-06-26T05:28:46.464Z,28.80
2019-06-26T05:32:56.904Z,29.10
2019-06-26T05:37:07.220Z,29.20
2019-06-26T05:41:17.609Z,29.50
2019-06-26T05:45:28.002Z,30.00
2019-06-26T05:49:38.372Z,30.10
2019-06-26T05:53:48.737Z,30.30
2019-06-26T05:57:59.059Z,30.40
2019-06-26T06:02:09.560Z,30.50
2019-06-26T06:06:19.909Z,31.00
2019-06-26T06:10:30.289Z,31.20
2019-06-26T06:14:40.569Z,31.60
2019-06-26T06:18:50.908Z,31.70
2019-06-26T06:23:01.431Z,31.70
2019-06-26T06:27:11.821Z,32.00
2019-06-26T06:31:22.233Z,32.20
2019-06-26T06:35:32.551Z,32.60
2019-06-26T06:39:42.811Z,33.00
2019-06-26T06:43:53.099Z,33.10
2019-06-26T06:48:03.437Z,33.10
2019-06-26T06:52:16.569Z,33.10
2019-06-26T06:56:25.712Z,33.10
2019-06-26T07:00:37.543Z,33.20
2019-06-26T07:04:48.795Z,33.20
2019-06-26T07:08:59.314Z,33.60
2019-06-26T07:13:09.658Z,33.90
2019-06-26T07:17:21.436Z,34.10
2019-06-26T07:21:31.977Z,34.00
2019-06-26T07:25:42.338Z,34.50
2019-06-26T07:29:52.700Z,34.70
2019-06-26T07:34:02.940Z,35.00
2019-06-26T07:38:13.249Z,35.00
2019-06-26T07:42:23.585Z,35.20
2019-06-26T07:46:33.905Z,35.10
2019-06-26T07:50:44.479Z,35.10
2019-06-26T07:54:54.834Z,35.10
2019-06-26T07:59:05.405Z,35.50
2019-06-26T08:03:15.786Z,36.00
2019-06-26T08:07:26.293Z,36.10
2019-06-26T08:11:37.023Z,36.20
2019-06-26T08:15:47.418Z,36.40
2019-06-26T08:19:57.762Z,36.30
2019-06-26T08:24:08.359Z,36.70
2019-06-26T08:28:18.664Z,37.00
2019-06-26T08:32:29.132Z,37.00
2019-06-26T08:36:39.475Z,37.10
2019-06-26T08:40:51.550Z,37.10
2019-06-26T08:45:01.881Z,37.20
2019-06-26T08:49:24.957Z,37.50
2019-06-26T08:53:25.109Z,37.80
2019-06-26T08:57:35.779Z,37.80
2019-06-26T09:01:46.226Z,37.90
2019-06-26T09:05:56.592Z,38.10
2019-06-26T09:10:07.432Z,38.20
2019-06-26T09:14:17.822Z,38.30
2019-06-26T09:18:35.558Z,38.40
2019-06-26T09:22:40.262Z,38.70
2019-06-26T09:26:50.697Z,39.50
2019-06-26T09:31:00.996Z,39.40
2019-06-26T09:35:11.631Z,39.20
2019-06-26T09:39:22.217Z,39.30
2019-06-26T09:43:32.615Z,39.60
2019-06-26T09:47:42.962Z,39.50
2019-06-26T09:51:53.377Z,39.20
2019-06-26T09:56:03.787Z,39.30
2019-06-26T10:00:16.713Z,39.50
2019-06-26T10:04:27.106Z,39.70
2019-06-26T10:08:37.340Z,39.30
2019-06-26T10:12:47.742Z,39.20
2019-06-26T10:16:58.359Z,39.70
2019-06-26T10:21:08.706Z,39.50
2019-06-26T10:25:19.178Z,39.60
2019-06-26T10:29:29.466Z,39.60
2019-06-26T10:33:39.793Z,39.20
2019-06-26T10:37:50.264Z,39.10
2019-06-26T10:42:00.597Z,38.40
2019-06-26T10:46:11.777Z,38.60
2019-06-26T10:50:22.106Z,38.70
2019-06-26T10:54:32.433Z,38.80
2019-06-26T10:58:43.380Z,39.10
2019-06-26T11:02:54.104Z,39.30
2019-06-26T11:07:04.863Z,39.70
2019-06-26T11:11:15.333Z,39.80
2019-06-26T11:15:25.942Z,39.90
2019-06-26T11:19:43.838Z,40.10
2019-06-26T11:23:48.592Z,40.00
2019-06-26T11:27:58.978Z,39.60
2019-06-26T11:32:09.799Z,39.30
2019-06-26T11:36:20.103Z,39.00
2019-06-26T11:40:30.620Z,39.20
2019-06-26T11:44:41.151Z,39.40
2019-06-26T11:48:51.489Z,39.70
2019-06-26T11:53:02.002Z,39.30
2019-06-26T11:57:12.540Z,39.20
2019-06-26T12:01:23.494Z,39.40
2019-06-26T12:05:34.029Z,39.10
2019-06-26T12:09:44.480Z,39.10
2019-06-26T12:13:55.110Z,39.20
2019-06-26T12:18:05.836Z,39.00
2019-06-26T12:22:16.154Z,38.60
2019-06-26T12:26:26.504Z,38.40
2019-06-26T12:30:36.984Z,38.60
2019-06-26T12:34:47.640Z,38.80
2019-06-26T12:38:57.946Z,38.50
2019-06-26T12:43:08.356Z,38.20
2019-06-26T12:47:18.786Z,38.10
2019-06-26T12:51:29.637Z,38.40
2019-06-26T12:55:40.742Z,38.50
2019-06-26T12:59:57.139Z,38.70
2019-06-26T13:04:03.469Z,38.80
2019-06-26T13:08:13.792Z,38.80
2019-06-26T13:12:24.138Z,38.60
2019-06-26T13:16:34.617Z,38.50
2019-06-26T13:20:52.656Z,38.40
2019-06-26T13:24:57.219Z,38.20
2019-06-26T13:29:09.924Z,38.50
2019-06-26T13:33:19.984Z,38.70
2019-06-26T13:37:30.516Z,38.80
2019-06-26T13:41:42.517Z,39.00
2019-06-26T13:45:52.985Z,38.60
2019-06-26T13:50:05.072Z,38.40
2019-06-26T13:54:15.886Z,38.30
2019-06-26T13:58:26.231Z,38.30
2019-06-26T14:02:36.546Z,38.40
2019-06-26T14:06:46.796Z,38.40
2019-06-26T14:10:57.192Z,38.50
2019-06-26T14:15:07.904Z,38.50
2019-06-26T14:19:18.102Z,38.30
2019-06-26T14:23:28.419Z,38.10
2019-06-26T14:27:38.710Z,38.10
2019-06-26T14:31:49.042Z,38.30
2019-06-26T14:35:59.330Z,38.50
2019-06-26T14:40:09.881Z,38.40
2019-06-26T14:44:20.302Z,38.30
2019-06-26T14:48:30.628Z,38.30
2019-06-26T14:52:41.050Z,38.20
2019-06-26T14:56:51.520Z,38.20
2019-06-26T15:01:01.817Z,38.10
2019-06-26T15:05:13.931Z,37.80
2019-06-26T15:09:24.233Z,37.60
2019-06-26T15:13:34.545Z,37.80
2019-06-26T15:17:44.891Z,38.00
2019-06-26T15:21:58.776Z,37.80
2019-06-26T15:26:07.181Z,37.60
2019-06-26T15:30:17.728Z,37.50
2019-06-26T15:34:28.036Z,37.50
2019-06-26T15:38:38.951Z,37.70
2019-06-26T15:42:49.285Z,37.80
2019-06-26T15:46:59.550Z,37.80
2019-06-26T15:51:09.859Z,37.60
2019-06-26T15:55:20.130Z,37.60
2019-06-26T15:59:31.217Z,37.40
2019-06-26T16:03:41.682Z,37.30
2019-06-26T16:07:52.041Z,37.20
2019-06-26T16:12:02.398Z,37.20
2019-06-26T16:16:12.728Z,37.20
2019-06-26T16:20:24.582Z,37.00
2019-06-26T16:24:35.070Z,36.80
2019-06-26T16:28:45.440Z,36.50
2019-06-26T16:32:57.005Z,36.40
2019-06-26T16:37:07.414Z,36.30
2019-06-26T16:41:17.721Z,36.20
2019-06-26T16:45:28.199Z,36.10
2019-06-26T16:49:38.520Z,36.10
2019-06-26T16:53:48.914Z,36.00
2019-06-26T16:57:59.202Z,35.90
2019-06-26T17:02:09.533Z,35.80
2019-06-26T17:06:19.985Z,35.70
2019-06-26T17:10:30.278Z,35.50
2019-06-26T17:14:40.641Z,35.40
2019-06-26T17:18:50.985Z,35.30
2019-06-26T17:23:06.289Z,35.20
2019-06-26T17:27:13.299Z,35.10
2019-06-26T17:31:23.908Z,35.00
2019-06-26T17:35:37.098Z,35.00
2019-06-26T17:39:47.544Z,34.80
2019-06-26T17:43:58.000Z,34.60
2019-06-26T17:48:08.643Z,34.50
2019-06-26T17:52:18.957Z,34.30
2019-06-26T17:56:29.289Z,34.30
2019-06-26T18:00:40.660Z,34.30
2019-06-26T18:04:51.781Z,34.30
2019-06-26T18:09:02.177Z,34.10
2019-06-26T18:13:12.731Z,33.90
2019-06-26T18:17:23.082Z,33.80
2019-06-26T18:21:33.405Z,33.50
2019-06-26T18:25:53.587Z,33.50
2019-06-26T18:29:58.212Z,33.40
2019-06-26T18:34:08.925Z,33.20
2019-06-26T18:38:19.262Z,33.10
2019-06-26T18:42:29.503Z,33.00
2019-06-26T18:46:40.084Z,32.90
2019-06-26T18:50:50.654Z,32.80
2019-06-26T18:55:01.250Z,32.70
2019-06-26T18:59:12.640Z,32.70
2019-06-26T19:03:22.913Z,32.60
2019-06-26T19:07:33.318Z,32.50
2019-06-26T19:11:43.656Z,32.40
2019-06-26T19:15:53.963Z,32.20
2019-06-26T19:20:06.764Z,32.10
2019-06-26T19:24:17.122Z,32.00
2019-06-26T19:28:27.779Z,32.00
2019-06-26T19:32:37.960Z,31.80
2019-06-26T19:36:50.534Z,31.80
2019-06-26T19:41:00.264Z,31.70
2019-06-26T19:45:12.341Z,31.50
2019-06-26T19:49:22.664Z,31.40
2019-06-26T19:53:33.018Z,31.30
2019-06-26T19:57:43.339Z,31.20
2019-06-26T20:01:53.715Z,31.00
2019-06-26T20:06:04.178Z,30.90
2019-06-26T20:10:15.142Z,30.80
2019-06-26T20:14:25.460Z,30.70
2019-06-26T20:18:35.758Z,30.50
2019-06-26T20:22:46.101Z,30.40
2019-06-26T20:26:56.461Z,30.30
2019-06-26T20:31:06.834Z,30.20
2019-06-26T20:35:17.186Z,30.10
2019-06-26T20:39:27.681Z,29.90
2019-06-26T20:43:39.541Z,29.80
2019-06-26T20:47:50.019Z,29.70
2019-06-26T20:52:00.383Z,29.50
2019-06-26T20:56:10.732Z,29.40
2019-06-26T21:00:22.636Z,29.40
2019-06-26T21:04:33.182Z,29.20
2019-06-26T21:08:43.483Z,29.10
2019-06-26T21:12:53.855Z,29.00
2019-06-26T21:17:04.101Z,28.90
2019-06-26T21:21:14.407Z,28.70
2019-06-26T21:25:24.663Z,28.60
2019-06-26T21:29:34.887Z,28.50
2019-06-26T21:33:45.222Z,28.40
2019-06-26T21:37:55.566Z,28.30
2019-06-26T21:42:05.913Z,28.30
2019-06-26T21:46:16.431Z,28.20
2019-06-26T21:50:28.976Z,28.20
2019-06-26T21:54:38.802Z,28.10
2019-06-26T21:58:49.121Z,28.00
2019-06-26T22:02:59.738Z,27.90
2019-06-26T22:07:10.042Z,27.70
2019-06-26T22:11:20.307Z,27.70
2019-06-26T22:15:30.603Z,27.60
2019-06-26T22:19:40.944Z,27.60
2019-06-26T22:23:51.405Z,27.40
2019-06-26T22:28:01.758Z,27.30
2019-06-26T22:32:12.093Z,27.20
2019-06-26T22:36:22.403Z,27.00
2019-06-26T22:40:32.703Z,26.90
2019-06-26T22:44:43.033Z,26.90
2019-06-26T22:48:53.289Z,26.80
2019-06-26T22:53:03.700Z,26.80
2019-06-26T22:57:14.159Z,26.70
2019-06-26T23:01:24.475Z,26.70
2019-06-26T23:05:35.576Z,26.50
2019-06-26T23:09:45.917Z,26.50
2019-06-26T23:13:56.362Z,26.40
2019-06-26T23:18:07.170Z,26.30
2019-06-26T23:22:17.473Z,26.20
2019-06-26T23:26:27.810Z,26.10
2019-06-26T23:30:38.142Z,26.10
2019-06-26T23:34:48.369Z,25.90
2019-06-26T23:38:58.694Z,25.90
2019-06-26T23:43:09.015Z,25.80
2019-06-26T23:47:19.301Z,25.80
2019-06-26T23:51:29.613Z,25.60
2019-06-26T23:55:40.011Z,25.60
2019-06-26T23:59:50.313Z,25.50
